KCLK/CLK METAR and TAF weather

Enter ICAO airport designator
Station Type Date Time Source
KCLK METAR 2019/06/19 06:55 UTC NOAA

KCLK 190655Z AUTO 00000KT 10SM -RA SCT100 BKN120 18/16 A2989 RMK AO2 LTG DSNT NE THRU S P0006


Station Type Date Time Source
KCLK Decoded METAR 2019/06/19 06:55 UTC NOAA

Clinton, Clinton Regional Airport, OK, United States (KCLK) 35-32-17N 098-55-17W
Jun 19, 2019 - 02:55 AM EDT / 2019.06.19 0655 UTC
Wind: Calm:0
Visibility: 10 mile(s):0
Sky conditions: mostly cloudy
Weather: light rain; Lightning observed
Precipitation last hour: 0.06 inches
Temperature: 64 F (18 C)
Dew Point: 60 F (16 C)
Relative Humidity: 88%
Pressure (altimeter): 29.89 in. Hg (1012 hPa)
ob: KCLK 190655Z AUTO 00000KT 10SM -RA SCT100 BKN120 18/16 A2989 RMK AO2 LTG DSNT NE THRU S P0006
cycle: 7

Station Type Date Time Source
KCLK TAF UTC NOAA

Error!

Example: see airport list